sensor_id;sensor_type;location;lat;lon;timestamp;temperature;humidity
73792;DHT22;62122;41.112;16.694;2022-08-19T00:01:14;29.27;44.96
73792;DHT22;62122;41.112;16.694;2022-08-19T00:04:22;29.27;44.85
73792;DHT22;62122;41.112;16.694;2022-08-19T00:07:26;29.30;44.71
73792;DHT22;62122;41.112;16.694;2022-08-19T00:10:30;29.31;44.62
73792;DHT22;62122;41.112;16.694;2022-08-19T00:13:34;29.37;44.48
73792;DHT22;62122;41.112;16.694;2022-08-19T00:16:38;29.33;44.87
73792;DHT22;62122;41.112;16.694;2022-08-19T00:19:42;29.31;44.80
73792;DHT22;62122;41.112;16.694;2022-08-19T00:22:47;29.23;44.91
73792;DHT22;62122;41.112;16.694;2022-08-19T00:25:51;29.37;44.36
73792;DHT22;62122;41.112;16.694;2022-08-19T00:28:55;29.42;44.22
73792;DHT22;62122;41.112;16.694;2022-08-19T00:31:59;29.57;44.10
73792;DHT22;62122;41.112;16.694;2022-08-19T00:35:03;29.64;44.03
73792;DHT22;62122;41.112;16.694;2022-08-19T00:38:07;29.58;44.07
73792;DHT22;62122;41.112;16.694;2022-08-19T00:41:16;29.54;44.18
73792;DHT22;62122;41.112;16.694;2022-08-19T00:44:25;29.60;44.16
73792;DHT22;62122;41.112;16.694;2022-08-19T00:47:30;29.65;44.29
73792;DHT22;62122;41.112;16.694;2022-08-19T00:50:35;29.61;44.36
73792;DHT22;62122;41.112;16.694;2022-08-19T00:53:39;29.58;44.56
73792;DHT22;62122;41.112;16.694;2022-08-19T00:56:43;29.75;44.21
73792;DHT22;62122;41.112;16.694;2022-08-19T00:59:51;29.86;44.15
73792;DHT22;62122;41.112;16.694;2022-08-19T01:02:56;29.92;43.97
73792;DHT22;62122;41.112;16.694;2022-08-19T01:06:01;29.97;43.53
73792;DHT22;62122;41.112;16.694;2022-08-19T01:09:05;30.01;43.34
73792;DHT22;62122;41.112;16.694;2022-08-19T01:12:09;29.97;43.29
73792;DHT22;62122;41.112;16.694;2022-08-19T01:15:16;29.94;43.35
73792;DHT22;62122;41.112;16.694;2022-08-19T01:18:21;29.91;43.06
73792;DHT22;62122;41.112;16.694;2022-08-19T01:21:57;29.91;42.93
73792;DHT22;62122;41.112;16.694;2022-08-19T01:25:03;29.77;43.16
73792;DHT22;62122;41.112;16.694;2022-08-19T01:28:12;29.78;43.21
73792;DHT22;62122;41.112;16.694;2022-08-19T01:31:25;29.80;43.22
73792;DHT22;62122;41.112;16.694;2022-08-19T01:34:30;29.82;42.92
73792;DHT22;62122;41.112;16.694;2022-08-19T01:38:07;29.88;42.80
73792;DHT22;62122;41.112;16.694;2022-08-19T01:41:12;29.94;42.46
73792;DHT22;62122;41.112;16.694;2022-08-19T01:44:16;29.94;42.31
73792;DHT22;62122;41.112;16.694;2022-08-19T01:47:21;30.01;41.99
73792;DHT22;62122;41.112;16.694;2022-08-19T01:50:25;30.11;41.49
73792;DHT22;62122;41.112;16.694;2022-08-19T01:53:29;30.13;41.07
73792;DHT22;62122;41.112;16.694;2022-08-19T01:56:33;30.16;41.08
73792;DHT22;62122;41.112;16.694;2022-08-19T01:59:40;30.12;41.12
73792;DHT22;62122;41.112;16.694;2022-08-19T02:02:45;30.11;41.10
73792;DHT22;62122;41.112;16.694;2022-08-19T02:05:55;30.02;41.27
73792;DHT22;62122;41.112;16.694;2022-08-19T02:08:59;29.94;41.30
73792;DHT22;62122;41.112;16.694;2022-08-19T02:12:05;29.89;41.00
73792;DHT22;62122;41.112;16.694;2022-08-19T02:15:11;29.94;40.89
73792;DHT22;62122;41.112;16.694;2022-08-19T02:18:15;29.88;40.63
73792;DHT22;62122;41.112;16.694;2022-08-19T02:21:22;29.95;40.52
73792;DHT22;62122;41.112;16.694;2022-08-19T02:24:27;29.91;40.60
73792;DHT22;62122;41.112;16.694;2022-08-19T02:27:31;29.84;40.76
73792;DHT22;62122;41.112;16.694;2022-08-19T02:30:37;29.78;40.75
73792;DHT22;62122;41.112;16.694;2022-08-19T02:33:43;29.75;40.60
73792;DHT22;62122;41.112;16.694;2022-08-19T02:36:47;29.74;40.46
73792;DHT22;62122;41.112;16.694;2022-08-19T02:39:50;29.77;40.63
73792;DHT22;62122;41.112;16.694;2022-08-19T02:42:56;29.78;40.24
73792;DHT22;62122;41.112;16.694;2022-08-19T02:46:01;29.78;40.57
73792;DHT22;62122;41.112;16.694;2022-08-19T02:49:07;29.74;40.71
73792;DHT22;62122;41.112;16.694;2022-08-19T02:52:11;29.58;41.68
73792;DHT22;62122;41.112;16.694;2022-08-19T02:55:15;29.36;42.70
73792;DHT22;62122;41.112;16.694;2022-08-19T02:58:21;29.16;43.44
73792;DHT22;62122;41.112;16.694;2022-08-19T03:01:31;29.03;43.81
73792;DHT22;62122;41.112;16.694;2022-08-19T03:04:36;29.00;43.91
73792;DHT22;62122;41.112;16.694;2022-08-19T03:07:40;28.94;44.02
73792;DHT22;62122;41.112;16.694;2022-08-19T03:10:46;28.88;44.14
73792;DHT22;62122;41.112;16.694;2022-08-19T03:13:50;28.87;44.35
73792;DHT22;62122;41.112;16.694;2022-08-19T03:16:54;28.88;44.51
73792;DHT22;62122;41.112;16.694;2022-08-19T03:19:58;28.88;44.70
73792;DHT22;62122;41.112;16.694;2022-08-19T03:23:01;28.91;44.91
73792;DHT22;62122;41.112;16.694;2022-08-19T03:26:06;28.81;45.61
73792;DHT22;62122;41.112;16.694;2022-08-19T03:29:10;28.79;45.98
73792;DHT22;62122;41.112;16.694;2022-08-19T03:32:16;28.87;45.80
73792;DHT22;62122;41.112;16.694;2022-08-19T03:35:20;29.05;45.13
73792;DHT22;62122;41.112;16.694;2022-08-19T03:38:25;29.10;44.79
73792;DHT22;62122;41.112;16.694;2022-08-19T03:41:35;28.95;45.57
73792;DHT22;62122;41.112;16.694;2022-08-19T03:44:40;28.76;46.05
73792;DHT22;62122;41.112;16.694;2022-08-19T03:47:46;28.47;46.32
73792;DHT22;62122;41.112;16.694;2022-08-19T03:50:50;28.41;46.50
73792;DHT22;62122;41.112;16.694;2022-08-19T03:53:55;28.32;46.80
73792;DHT22;62122;41.112;16.694;2022-08-19T03:56:59;28.27;46.99
73792;DHT22;62122;41.112;16.694;2022-08-19T04:00:04;28.27;46.94
73792;DHT22;62122;41.112;16.694;2022-08-19T04:03:10;28.36;46.91
73792;DHT22;62122;41.112;16.694;2022-08-19T04:09:19;28.45;46.88
73792;DHT22;62122;41.112;16.694;2022-08-19T04:12:23;28.48;46.72
73792;DHT22;62122;41.112;16.694;2022-08-19T04:15:27;28.54;46.51
73792;DHT22;62122;41.112;16.694;2022-08-19T04:18:38;28.58;46.48
73792;DHT22;62122;41.112;16.694;2022-08-19T04:21:45;28.57;46.55
73792;DHT22;62122;41.112;16.694;2022-08-19T04:24:49;28.62;46.45
73792;DHT22;62122;41.112;16.694;2022-08-19T04:27:54;28.72;46.31
73792;DHT22;62122;41.112;16.694;2022-08-19T04:30:57;28.68;46.46
73792;DHT22;62122;41.112;16.694;2022-08-19T04:34:05;28.61;46.63
73792;DHT22;62122;41.112;16.694;2022-08-19T04:37:09;28.67;46.64
73792;DHT22;62122;41.112;16.694;2022-08-19T04:40:16;28.71;46.72
73792;DHT22;62122;41.112;16.694;2022-08-19T04:43:38;28.55;47.27
73792;DHT22;62122;41.112;16.694;2022-08-19T04:46:42;28.67;47.47
73792;DHT22;62122;41.112;16.694;2022-08-19T04:49:46;28.69;47.47
73792;DHT22;62122;41.112;16.694;2022-08-19T04:52:51;28.68;47.70
73792;DHT22;62122;41.112;16.694;2022-08-19T04:55:57;28.65;47.79
73792;DHT22;62122;41.112;16.694;2022-08-19T04:59:01;28.69;47.80
73792;DHT22;62122;41.112;16.694;2022-08-19T05:02:08;28.78;47.62
73792;DHT22;62122;41.112;16.694;2022-08-19T05:05:13;28.79;47.62
73792;DHT22;62122;41.112;16.694;2022-08-19T05:08:20;28.83;47.57
73792;DHT22;62122;41.112;16.694;2022-08-19T05:11:28;28.98;47.31
73792;DHT22;62122;41.112;16.694;2022-08-19T05:14:32;28.78;47.70
73792;DHT22;62122;41.112;16.694;2022-08-19T05:17:37;28.50;48.46
73792;DHT22;62122;41.112;16.694;2022-08-19T05:20:41;28.34;48.95
73792;DHT22;62122;41.112;16.694;2022-08-19T05:24:04;28.47;48.87
73792;DHT22;62122;41.112;16.694;2022-08-19T05:27:12;28.50;48.81
73792;DHT22;62122;41.112;16.694;2022-08-19T05:30:18;28.23;49.27
73792;DHT22;62122;41.112;16.694;2022-08-19T05:33:23;28.12;50.14
73792;DHT22;62122;41.112;16.694;2022-08-19T05:36:32;28.10;52.52
73792;DHT22;62122;41.112;16.694;2022-08-19T05:39:38;28.05;53.83
73792;DHT22;62122;41.112;16.694;2022-08-19T05:42:42;27.92;54.38
73792;DHT22;62122;41.112;16.694;2022-08-19T05:45:46;28.13;53.73
73792;DHT22;62122;41.112;16.694;2022-08-19T05:48:50;28.60;52.59
73792;DHT22;62122;41.112;16.694;2022-08-19T05:51:55;28.94;51.74
73792;DHT22;62122;41.112;16.694;2022-08-19T05:54:59;29.27;50.69
73792;DHT22;62122;41.112;16.694;2022-08-19T05:58:03;29.56;49.90
73792;DHT22;62122;41.112;16.694;2022-08-19T06:01:16;29.80;49.11
73792;DHT22;62122;41.112;16.694;2022-08-19T06:04:22;30.23;48.33
73792;DHT22;62122;41.112;16.694;2022-08-19T06:07:26;30.39;48.59
73792;DHT22;62122;41.112;16.694;2022-08-19T06:10:30;30.87;47.82
73792;DHT22;62122;41.112;16.694;2022-08-19T06:13:35;31.16;47.47
73792;DHT22;62122;41.112;16.694;2022-08-19T06:16:40;31.50;46.67
73792;DHT22;62122;41.112;16.694;2022-08-19T06:19:45;31.62;45.52
73792;DHT22;62122;41.112;16.694;2022-08-19T06:22:49;31.84;45.00
73792;DHT22;62122;41.112;16.694;2022-08-19T06:25:54;31.96;44.56
73792;DHT22;62122;41.112;16.694;2022-08-19T06:28:58;31.87;44.74
73792;DHT22;62122;41.112;16.694;2022-08-19T06:32:03;32.04;44.65
73792;DHT22;62122;41.112;16.694;2022-08-19T06:35:08;32.41;43.91
73792;DHT22;62122;41.112;16.694;2022-08-19T06:38:13;32.87;42.84
73792;DHT22;62122;41.112;16.694;2022-08-19T06:41:44;34.12;40.63
73792;DHT22;62122;41.112;16.694;2022-08-19T06:44:53;33.86;40.94
73792;DHT22;62122;41.112;16.694;2022-08-19T06:47:58;33.76;41.07
73792;DHT22;62122;41.112;16.694;2022-08-19T06:51:03;33.79;41.48
73792;DHT22;62122;41.112;16.694;2022-08-19T06:54:10;33.26;42.64
73792;DHT22;62122;41.112;16.694;2022-08-19T06:57:15;32.76;43.60
73792;DHT22;62122;41.112;16.694;2022-08-19T07:00:19;32.73;43.96
73792;DHT22;62122;41.112;16.694;2022-08-19T07:03:23;32.41;44.25
73792;DHT22;62122;41.112;16.694;2022-08-19T07:06:26;32.36;43.88
73792;DHT22;62122;41.112;16.694;2022-08-19T07:09:30;32.46;43.50
73792;DHT22;62122;41.112;16.694;2022-08-19T07:12:36;31.72;45.20
73792;DHT22;62122;41.112;16.694;2022-08-19T07:15:40;31.45;46.14
73792;DHT22;62122;41.112;16.694;2022-08-19T07:18:44;31.21;47.11
73792;DHT22;62122;41.112;16.694;2022-08-19T07:21:50;30.99;47.87
73792;DHT22;62122;41.112;16.694;2022-08-19T07:24:56;30.70;48.77
73792;DHT22;62122;41.112;16.694;2022-08-19T07:27:59;30.23;49.88
73792;DHT22;62122;41.112;16.694;2022-08-19T07:31:03;29.92;51.58
73792;DHT22;62122;41.112;16.694;2022-08-19T07:34:09;29.68;52.18
73792;DHT22;62122;41.112;16.694;2022-08-19T07:37:14;29.88;51.43
73792;DHT22;62122;41.112;16.694;2022-08-19T07:40:18;30.15;50.58
73792;DHT22;62122;41.112;16.694;2022-08-19T07:43:22;30.47;50.11
73792;DHT22;62122;41.112;16.694;2022-08-19T07:46:31;30.70;49.71
73792;DHT22;62122;41.112;16.694;2022-08-19T07:49:35;31.39;48.74
73792;DHT22;62122;41.112;16.694;2022-08-19T07:52:40;31.69;47.90
73792;DHT22;62122;41.112;16.694;2022-08-19T07:55:43;31.12;51.15
73792;DHT22;62122;41.112;16.694;2022-08-19T07:58:50;30.76;53.40
73792;DHT22;62122;41.112;16.694;2022-08-19T08:01:55;30.57;52.48
73792;DHT22;62122;41.112;16.694;2022-08-19T08:05:00;30.39;53.28
73792;DHT22;62122;41.112;16.694;2022-08-19T08:08:24;30.36;52.94
73792;DHT22;62122;41.112;16.694;2022-08-19T08:14:55;29.78;53.48
73792;DHT22;62122;41.112;16.694;2022-08-19T08:18:00;29.37;53.94
73792;DHT22;62122;41.112;16.694;2022-08-19T08:21:05;29.43;53.42
73792;DHT22;62122;41.112;16.694;2022-08-19T08:24:09;29.51;53.26
73792;DHT22;62122;41.112;16.694;2022-08-19T08:27:14;29.38;53.47
73792;DHT22;62122;41.112;16.694;2022-08-19T08:30:22;29.43;53.34
73792;DHT22;62122;41.112;16.694;2022-08-19T08:33:28;29.46;53.29
73792;DHT22;62122;41.112;16.694;2022-08-19T08:36:36;29.56;52.77
73792;DHT22;62122;41.112;16.694;2022-08-19T08:39:45;29.49;52.83
73792;DHT22;62122;41.112;16.694;2022-08-19T08:46:18;29.05;54.01
73792;DHT22;62122;41.112;16.694;2022-08-19T08:49:33;28.83;53.77
73792;DHT22;62122;41.112;16.694;2022-08-19T08:52:45;29.08;53.57
73792;DHT22;62122;41.112;16.694;2022-08-19T08:55:50;29.31;53.45
73792;DHT22;62122;41.112;16.694;2022-08-19T08:59:05;29.29;53.94
73792;DHT22;62122;41.112;16.694;2022-08-19T09:02:12;29.06;54.55
73792;DHT22;62122;41.112;16.694;2022-08-19T09:05:17;28.85;54.97
73792;DHT22;62122;41.112;16.694;2022-08-19T09:15:14;29.17;52.03
73792;DHT22;62122;41.112;16.694;2022-08-19T09:18:19;28.65;54.98
73792;DHT22;62122;41.112;16.694;2022-08-19T09:21:24;28.37;59.36
73792;DHT22;62122;41.112;16.694;2022-08-19T09:24:28;28.12;60.82
73792;DHT22;62122;41.112;16.694;2022-08-19T09:27:33;27.97;59.12
73792;DHT22;62122;41.112;16.694;2022-08-19T09:30:41;27.99;61.45
73792;DHT22;62122;41.112;16.694;2022-08-19T09:33:46;28.16;59.25
73792;DHT22;62122;41.112;16.694;2022-08-19T09:36:51;28.48;59.44
73792;DHT22;62122;41.112;16.694;2022-08-19T09:39:57;28.54;59.19
73792;DHT22;62122;41.112;16.694;2022-08-19T09:43:01;28.85;58.33
73792;DHT22;62122;41.112;16.694;2022-08-19T09:46:07;29.19;57.17
73792;DHT22;62122;41.112;16.694;2022-08-19T09:49:12;29.70;55.98
73792;DHT22;62122;41.112;16.694;2022-08-19T09:52:17;30.39;54.64
73792;DHT22;62122;41.112;16.694;2022-08-19T09:55:22;30.78;53.51
73792;DHT22;62122;41.112;16.694;2022-08-19T09:58:25;31.07;52.36
73792;DHT22;62122;41.112;16.694;2022-08-19T10:01:32;31.29;52.09
73792;DHT22;62122;41.112;16.694;2022-08-19T10:04:36;31.58;50.90
73792;DHT22;62122;41.112;16.694;2022-08-19T10:07:58;31.36;51.01
73792;DHT22;62122;41.112;16.694;2022-08-19T10:11:04;31.19;49.04
73792;DHT22;62122;41.112;16.694;2022-08-19T10:14:09;31.72;47.00
73792;DHT22;62122;41.112;16.694;2022-08-19T10:17:13;32.15;46.46
73792;DHT22;62122;41.112;16.694;2022-08-19T10:20:18;32.13;46.83
73792;DHT22;62122;41.112;16.694;2022-08-19T10:23:21;31.69;46.27
73792;DHT22;62122;41.112;16.694;2022-08-19T10:26:28;32.08;45.26
73792;DHT22;62122;41.112;16.694;2022-08-19T10:29:32;32.44;43.37
73792;DHT22;62122;41.112;16.694;2022-08-19T10:32:37;31.67;45.63
73792;DHT22;62122;41.112;16.694;2022-08-19T10:35:42;31.11;47.81
73792;DHT22;62122;41.112;16.694;2022-08-19T10:38:49;31.39;46.31
73792;DHT22;62122;41.112;16.694;2022-08-19T10:41:53;31.28;47.27
73792;DHT22;62122;41.112;16.694;2022-08-19T10:45:01;31.38;46.83
73792;DHT22;62122;41.112;16.694;2022-08-19T10:48:05;30.99;47.57
73792;DHT22;62122;41.112;16.694;2022-08-19T10:51:10;31.11;48.00
73792;DHT22;62122;41.112;16.694;2022-08-19T10:54:34;30.88;48.99
73792;DHT22;62122;41.112;16.694;2022-08-19T10:57:57;30.68;49.80
73792;DHT22;62122;41.112;16.694;2022-08-19T11:01:00;30.47;51.43
73792;DHT22;62122;41.112;16.694;2022-08-19T11:04:05;30.33;52.93
73792;DHT22;62122;41.112;16.694;2022-08-19T11:07:11;30.09;54.43
73792;DHT22;62122;41.112;16.694;2022-08-19T11:10:15;29.98;55.35
73792;DHT22;62122;41.112;16.694;2022-08-19T11:13:22;30.00;54.96
73792;DHT22;62122;41.112;16.694;2022-08-19T11:16:26;30.05;54.29
73792;DHT22;62122;41.112;16.694;2022-08-19T11:19:33;30.12;53.93
73792;DHT22;62122;41.112;16.694;2022-08-19T11:22:39;30.25;53.01
73792;DHT22;62122;41.112;16.694;2022-08-19T11:25:43;30.53;52.33
73792;DHT22;62122;41.112;16.694;2022-08-19T11:28:49;30.52;52.07
73792;DHT22;62122;41.112;16.694;2022-08-19T11:31:57;30.66;52.00
73792;DHT22;62122;41.112;16.694;2022-08-19T11:35:01;30.76;52.10
73792;DHT22;62122;41.112;16.694;2022-08-19T11:38:04;30.67;52.26
73792;DHT22;62122;41.112;16.694;2022-08-19T11:41:09;30.71;51.04
73792;DHT22;62122;41.112;16.694;2022-08-19T11:44:13;30.70;50.64
73792;DHT22;62122;41.112;16.694;2022-08-19T11:47:18;30.84;49.73
73792;DHT22;62122;41.112;16.694;2022-08-19T11:50:23;30.85;49.29
73792;DHT22;62122;41.112;16.694;2022-08-19T11:53:29;30.97;48.26
73792;DHT22;62122;41.112;16.694;2022-08-19T11:56:33;30.95;48.37
73792;DHT22;62122;41.112;16.694;2022-08-19T11:59:37;31.01;48.40
73792;DHT22;62122;41.112;16.694;2022-08-19T12:02:41;31.08;48.73
73792;DHT22;62122;41.112;16.694;2022-08-19T12:05:46;30.84;49.18
73792;DHT22;62122;41.112;16.694;2022-08-19T12:08:50;30.81;49.40
73792;DHT22;62122;41.112;16.694;2022-08-19T12:11:53;30.83;50.04
73792;DHT22;62122;41.112;16.694;2022-08-19T12:14:58;30.87;49.65
73792;DHT22;62122;41.112;16.694;2022-08-19T12:18:03;31.08;49.49
73792;DHT22;62122;41.112;16.694;2022-08-19T12:21:08;31.74;46.93
73792;DHT22;62122;41.112;16.694;2022-08-19T12:24:14;32.17;46.27
73792;DHT22;62122;41.112;16.694;2022-08-19T12:27:18;32.75;44.45
73792;DHT22;62122;41.112;16.694;2022-08-19T12:30:22;32.87;43.26
73792;DHT22;62122;41.112;16.694;2022-08-19T12:33:26;33.23;41.90
73792;DHT22;62122;41.112;16.694;2022-08-19T12:36:31;32.75;43.47
73792;DHT22;62122;41.112;16.694;2022-08-19T12:39:40;32.65;42.86
73792;DHT22;62122;41.112;16.694;2022-08-19T12:42:44;32.53;43.47
73792;DHT22;62122;41.112;16.694;2022-08-19T12:45:49;32.39;43.37
73792;DHT22;62122;41.112;16.694;2022-08-19T12:48:53;32.21;42.49
73792;DHT22;62122;41.112;16.694;2022-08-19T12:51:57;32.10;44.10
73792;DHT22;62122;41.112;16.694;2022-08-19T12:55:02;31.87;44.77
73792;DHT22;62122;41.112;16.694;2022-08-19T12:58:06;31.83;44.99
73792;DHT22;62122;41.112;16.694;2022-08-19T13:01:12;31.59;46.32
73792;DHT22;62122;41.112;16.694;2022-08-19T13:04:16;31.47;47.04
73792;DHT22;62122;41.112;16.694;2022-08-19T13:07:20;31.38;47.50
73792;DHT22;62122;41.112;16.694;2022-08-19T13:10:29;31.36;47.95
73792;DHT22;62122;41.112;16.694;2022-08-19T13:13:33;31.41;47.81
73792;DHT22;62122;41.112;16.694;2022-08-19T13:16:37;31.41;47.59
73792;DHT22;62122;41.112;16.694;2022-08-19T13:19:42;31.38;47.43
73792;DHT22;62122;41.112;16.694;2022-08-19T13:22:46;31.32;48.07
73792;DHT22;62122;41.112;16.694;2022-08-19T13:25:58;31.31;48.45
73792;DHT22;62122;41.112;16.694;2022-08-19T13:29:02;31.47;48.23
73792;DHT22;62122;41.112;16.694;2022-08-19T13:32:25;31.83;47.49
73792;DHT22;62122;41.112;16.694;2022-08-19T13:35:56;32.39;46.41
73792;DHT22;62122;41.112;16.694;2022-08-19T13:39:00;32.38;46.33
73792;DHT22;62122;41.112;16.694;2022-08-19T13:42:04;32.24;46.79
73792;DHT22;62122;41.112;16.694;2022-08-19T13:45:09;32.63;46.46
73792;DHT22;62122;41.112;16.694;2022-08-19T13:48:14;32.39;48.26
73792;DHT22;62122;41.112;16.694;2022-08-19T13:51:19;32.71;48.89
73792;DHT22;62122;41.112;16.694;2022-08-19T13:54:23;31.80;52.73
73792;DHT22;62122;41.112;16.694;2022-08-19T13:57:26;32.00;52.87
73792;DHT22;62122;41.112;16.694;2022-08-19T14:00:33;32.06;53.00
73792;DHT22;62122;41.112;16.694;2022-08-19T14:03:38;31.50;53.99
73792;DHT22;62122;41.112;16.694;2022-08-19T14:06:41;31.67;54.31
73792;DHT22;62122;41.112;16.694;2022-08-19T14:09:46;31.77;53.93
73792;DHT22;62122;41.112;16.694;2022-08-19T14:12:58;31.60;54.45
73792;DHT22;62122;41.112;16.694;2022-08-19T14:16:13;30.85;56.83
73792;DHT22;62122;41.112;16.694;2022-08-19T14:19:17;30.61;57.89
73792;DHT22;62122;41.112;16.694;2022-08-19T14:22:21;30.67;57.54
73792;DHT22;62122;41.112;16.694;2022-08-19T14:25:28;30.47;58.23
73792;DHT22;62122;41.112;16.694;2022-08-19T14:28:32;30.49;58.16
73792;DHT22;62122;41.112;16.694;2022-08-19T14:31:36;30.47;58.34
73792;DHT22;62122;41.112;16.694;2022-08-19T14:34:40;30.50;58.46
73792;DHT22;62122;41.112;16.694;2022-08-19T14:37:46;30.80;57.84
73792;DHT22;62122;41.112;16.694;2022-08-19T14:40:50;31.19;56.93
73792;DHT22;62122;41.112;16.694;2022-08-19T14:43:56;31.08;57.42
73792;DHT22;62122;41.112;16.694;2022-08-19T14:47:01;31.32;56.99
73792;DHT22;62122;41.112;16.694;2022-08-19T14:50:09;31.54;56.56
73792;DHT22;62122;41.112;16.694;2022-08-19T14:53:15;31.19;57.54
73792;DHT22;62122;41.112;16.694;2022-08-19T14:56:23;31.49;57.14
73792;DHT22;62122;41.112;16.694;2022-08-19T14:59:27;31.21;58.02
73792;DHT22;62122;41.112;16.694;2022-08-19T15:02:31;31.63;56.86
73792;DHT22;62122;41.112;16.694;2022-08-19T15:05:35;31.14;57.99
73792;DHT22;62122;41.112;16.694;2022-08-19T15:08:41;31.19;57.97
73792;DHT22;62122;41.112;16.694;2022-08-19T15:11:46;31.26;57.79
73792;DHT22;62122;41.112;16.694;2022-08-19T15:14:51;31.25;58.15
73792;DHT22;62122;41.112;16.694;2022-08-19T15:17:54;31.33;57.91
73792;DHT22;62122;41.112;16.694;2022-08-19T15:20:59;31.74;56.77
73792;DHT22;62122;41.112;16.694;2022-08-19T15:24:03;31.39;57.91
73792;DHT22;62122;41.112;16.694;2022-08-19T15:27:08;31.53;57.57
73792;DHT22;62122;41.112;16.694;2022-08-19T15:30:22;32.08;55.99
73792;DHT22;62122;41.112;16.694;2022-08-19T15:33:26;31.76;57.08
73792;DHT22;62122;41.112;16.694;2022-08-19T15:36:31;31.73;56.76
73792;DHT22;62122;41.112;16.694;2022-08-19T15:39:35;31.63;56.94
73792;DHT22;62122;41.112;16.694;2022-08-19T15:42:40;31.41;57.67
73792;DHT22;62122;41.112;16.694;2022-08-19T15:45:46;31.25;58.05
73792;DHT22;62122;41.112;16.694;2022-08-19T15:48:51;30.97;58.91
73792;DHT22;62122;41.112;16.694;2022-08-19T15:51:55;30.95;58.90
73792;DHT22;62122;41.112;16.694;2022-08-19T15:55:04;31.01;58.43
73792;DHT22;62122;41.112;16.694;2022-08-19T15:58:11;31.15;57.91
73792;DHT22;62122;41.112;16.694;2022-08-19T16:01:36;31.22;57.77
73792;DHT22;62122;41.112;16.694;2022-08-19T16:04:59;31.16;57.74
73792;DHT22;62122;41.112;16.694;2022-08-19T16:08:22;31.21;57.39
73792;DHT22;62122;41.112;16.694;2022-08-19T16:11:28;31.29;57.13
73792;DHT22;62122;41.112;16.694;2022-08-19T16:14:34;31.36;57.02
73792;DHT22;62122;41.112;16.694;2022-08-19T16:17:39;31.31;57.31
73792;DHT22;62122;41.112;16.694;2022-08-19T16:20:43;31.18;57.55
73792;DHT22;62122;41.112;16.694;2022-08-19T16:23:50;31.15;57.17
73792;DHT22;62122;41.112;16.694;2022-08-19T16:26:56;30.90;57.67
73792;DHT22;62122;41.112;16.694;2022-08-19T16:30:00;31.35;56.23
73792;DHT22;62122;41.112;16.694;2022-08-19T16:33:08;31.41;56.18
73792;DHT22;62122;41.112;16.694;2022-08-19T16:36:12;30.91;56.33
73792;DHT22;62122;41.112;16.694;2022-08-19T16:39:16;30.60;56.91
73792;DHT22;62122;41.112;16.694;2022-08-19T16:42:20;30.47;57.58
73792;DHT22;62122;41.112;16.694;2022-08-19T16:45:25;30.61;56.94
73792;DHT22;62122;41.112;16.694;2022-08-19T16:48:29;30.70;56.51
73792;DHT22;62122;41.112;16.694;2022-08-19T16:51:34;30.57;57.07
73792;DHT22;62122;41.112;16.694;2022-08-19T16:54:38;30.61;56.97
73792;DHT22;62122;41.112;16.694;2022-08-19T16:57:42;30.50;57.40
73792;DHT22;62122;41.112;16.694;2022-08-19T17:00:45;30.52;57.27
73792;DHT22;62122;41.112;16.694;2022-08-19T17:03:51;30.46;57.28
73792;DHT22;62122;41.112;16.694;2022-08-19T17:06:55;30.37;57.31
73792;DHT22;62122;41.112;16.694;2022-08-19T17:10:01;30.32;57.33
73792;DHT22;62122;41.112;16.694;2022-08-19T17:13:05;30.39;56.11
73792;DHT22;62122;41.112;16.694;2022-08-19T17:16:09;30.30;55.94
73792;DHT22;62122;41.112;16.694;2022-08-19T17:19:13;30.43;55.31
73792;DHT22;62122;41.112;16.694;2022-08-19T17:22:16;30.40;55.40
73792;DHT22;62122;41.112;16.694;2022-08-19T17:25:21;30.30;56.24
73792;DHT22;62122;41.112;16.694;2022-08-19T17:28:28;30.21;56.59
73792;DHT22;62122;41.112;16.694;2022-08-19T17:31:33;29.77;61.48
73792;DHT22;62122;41.112;16.694;2022-08-19T17:34:37;29.08;66.20
73792;DHT22;62122;41.112;16.694;2022-08-19T17:37:42;28.64;68.26
73792;DHT22;62122;41.112;16.694;2022-08-19T17:40:46;28.51;69.05
73792;DHT22;62122;41.112;16.694;2022-08-19T17:43:50;27.97;71.64
73792;DHT22;62122;41.112;16.694;2022-08-19T17:46:54;27.72;73.07
73792;DHT22;62122;41.112;16.694;2022-08-19T17:49:58;27.61;73.75
73792;DHT22;62122;41.112;16.694;2022-08-19T17:53:03;27.27;75.12
73792;DHT22;62122;41.112;16.694;2022-08-19T17:56:09;27.41;74.66
73792;DHT22;62122;41.112;16.694;2022-08-19T17:59:14;27.27;75.25
73792;DHT22;62122;41.112;16.694;2022-08-19T18:02:19;27.03;76.02
73792;DHT22;62122;41.112;16.694;2022-08-19T18:05:29;26.99;75.82
73792;DHT22;62122;41.112;16.694;2022-08-19T18:08:35;27.06;75.29
73792;DHT22;62122;41.112;16.694;2022-08-19T18:11:42;27.11;74.94
73792;DHT22;62122;41.112;16.694;2022-08-19T18:14:47;27.10;74.76
73792;DHT22;62122;41.112;16.694;2022-08-19T18:17:51;27.13;74.15
73792;DHT22;62122;41.112;16.694;2022-08-19T18:20:55;27.30;69.44
73792;DHT22;62122;41.112;16.694;2022-08-19T18:23:59;27.97;54.87
73792;DHT22;62122;41.112;16.694;2022-08-19T18:27:03;28.10;56.69
73792;DHT22;62122;41.112;16.694;2022-08-19T18:30:08;28.27;56.20
73792;DHT22;62122;41.112;16.694;2022-08-19T18:33:13;28.37;55.37
73792;DHT22;62122;41.112;16.694;2022-08-19T18:36:18;28.47;51.31
73792;DHT22;62122;41.112;16.694;2022-08-19T18:39:22;28.67;45.65
73792;DHT22;62122;41.112;16.694;2022-08-19T18:42:46;28.87;38.49
73792;DHT22;62122;41.112;16.694;2022-08-19T18:46:08;29.03;37.84
73792;DHT22;62122;41.112;16.694;2022-08-19T18:49:32;29.16;37.90
73792;DHT22;62122;41.112;16.694;2022-08-19T18:52:35;29.19;36.20
73792;DHT22;62122;41.112;16.694;2022-08-19T18:55:41;29.08;36.21
73792;DHT22;62122;41.112;16.694;2022-08-19T18:58:45;29.08;35.72
73792;DHT22;62122;41.112;16.694;2022-08-19T19:01:54;28.96;35.38
73792;DHT22;62122;41.112;16.694;2022-08-19T19:04:59;28.92;35.43
73792;DHT22;62122;41.112;16.694;2022-08-19T19:08:03;28.85;35.41
73792;DHT22;62122;41.112;16.694;2022-08-19T19:11:07;28.74;35.53
73792;DHT22;62122;41.112;16.694;2022-08-19T19:14:15;28.67;35.58
73792;DHT22;62122;41.112;16.694;2022-08-19T19:17:20;28.57;35.87
73792;DHT22;62122;41.112;16.694;2022-08-19T19:20:29;28.48;35.68
73792;DHT22;62122;41.112;16.694;2022-08-19T19:23:33;28.41;35.78
73792;DHT22;62122;41.112;16.694;2022-08-19T19:26:38;28.34;35.78
73792;DHT22;62122;41.112;16.694;2022-08-19T19:29:44;28.24;35.76
73792;DHT22;62122;41.112;16.694;2022-08-19T19:32:47;28.09;36.03